Time;durP1;ratioP1;P1;durP2;ratioP2;P2;SDS_P1;SDS_P2;PMS_P1;PMS_P2;Temp;Humidity;BMP_temperature;BMP_pressure;BME280_temperature;BME280_humidity;BME280_pressure;Samples;Min_cycle;Max_cycle;Signal;HPM_P1;HPM_P2
2023/08/05 00:03:32;;;;;;;2.85;2.65;;;;;17.70;96044.00;;;;8297582;28;20335;-65
2023/08/05 00:07:38;;;;;;;3.08;2.50;;;;;17.70;96039.00;;;;8300967;28;20186;-65
2023/08/05 00:11:42;;;;;;;4.53;2.75;;;;;17.70;96035.00;;;;8303159;28;20210;-66
2023/08/05 00:15:46;;;;;;;2.58;2.38;;;;;17.70;96039.00;;;;8302910;28;20201;-66
2023/08/05 00:19:51;;;;;;;2.20;2.00;;;;;17.70;96035.00;;;;8302669;28;20261;-65
2023/08/05 00:24:00;;;;;;;2.90;2.50;;;;;17.80;96030.00;;;;8298726;28;20194;-66
2023/08/05 00:28:04;;;;;;;2.50;2.30;;;;;17.80;96042.00;;;;8302595;28;20194;-66
2023/08/05 00:32:07;;;;;;;5.13;2.70;;;;;17.80;96043.00;;;;8302196;28;20198;-66
2023/08/05 00:36:16;;;;;;;2.80;2.60;;;;;17.80;96045.00;;;;8303183;28;20198;-66
2023/08/05 00:40:19;;;;;;;2.70;2.50;;;;;17.80;96041.00;;;;8301233;28;20214;-65
2023/08/05 00:44:24;;;;;;;2.60;2.40;;;;;17.80;96046.00;;;;8301936;28;20690;-65
2023/08/05 00:48:27;;;;;;;2.28;2.17;;;;;17.80;96043.00;;;;8302395;28;20281;-66
2023/08/05 00:52:32;;;;;;;2.97;2.65;;;;;17.80;96036.00;;;;8301507;28;20191;-65
2023/08/05 00:56:36;;;;;;;2.70;2.60;;;;;17.80;96042.00;;;;8302839;28;20203;-66
2023/08/05 01:00:39;;;;;;;5.30;2.22;;;;;17.70;96044.00;;;;8300839;28;20262;-66
2023/08/05 01:04:44;;;;;;;4.03;2.85;;;;;17.60;96043.00;;;;8301931;28;20318;-66
2023/08/05 01:08:50;;;;;;;5.63;2.95;;;;;17.50;96046.00;;;;8302565;28;20638;-66
2023/08/05 01:12:55;;;;;;;3.08;2.78;;;;;17.30;96039.00;;;;8301596;28;20248;-66
2023/08/05 01:17:01;;;;;;;4.53;2.80;;;;;17.20;96034.00;;;;8298949;28;20293;-66
2023/08/05 01:21:11;;;;;;;4.63;2.50;;;;;17.10;96036.00;;;;8300571;28;20279;-65
2023/08/05 01:25:29;;;;;;;2.53;2.33;;;;;17.00;96027.00;;;;8301344;28;20285;-65
2023/08/05 01:29:32;;;;;;;3.03;2.83;;;;;17.00;96021.00;;;;8300665;28;20198;-65
2023/08/05 01:33:37;;;;;;;2.90;2.60;;;;;16.90;96019.00;;;;8301022;28;20251;-65
2023/08/05 01:37:41;;;;;;;4.05;2.83;;;;;16.90;96018.00;;;;8300226;28;20229;-65
2023/08/05 01:41:45;;;;;;;4.22;2.65;;;;;16.90;96017.00;;;;8300409;28;20261;-65
2023/08/05 01:45:48;;;;;;;4.90;3.20;;;;;16.90;96012.00;;;;8300747;28;20216;-65
2023/08/05 01:49:53;;;;;;;4.20;2.63;;;;;16.90;96005.00;;;;8299821;28;20285;-66
2023/08/05 01:53:56;;;;;;;4.30;3.00;;;;;16.90;95995.00;;;;8301193;28;20573;-65
2023/08/05 01:58:03;;;;;;;5.15;2.95;;;;;16.90;95987.00;;;;8300099;28;20233;-65
2023/08/05 02:02:08;;;;;;;3.53;3.22;;;;;16.80;95985.00;;;;8300154;28;20667;-65
2023/08/05 02:06:14;;;;;;;3.70;3.40;;;;;16.80;95985.00;;;;8298853;28;20193;-65
2023/08/05 02:10:20;;;;;;;4.00;3.22;;;;;16.80;95973.00;;;;8300520;28;20197;-65
2023/08/05 02:14:25;;;;;;;3.60;3.30;;;;;16.70;95964.00;;;;8300109;28;20193;-65
2023/08/05 02:18:31;;;;;;;3.80;2.95;;;;;16.70;95958.00;;;;8299299;28;20204;-66
2023/08/05 02:22:34;;;;;;;4.45;3.10;;;;;16.70;95961.00;;;;8298773;28;20225;-66
2023/08/05 02:26:37;;;;;;;5.65;3.35;;;;;16.70;95950.00;;;;8299548;28;20190;-65
2023/08/05 02:30:42;;;;;;;3.50;3.05;;;;;16.70;95971.00;;;;8299109;28;20213;-65
2023/08/05 02:34:46;;;;;;;6.22;3.40;;;;;16.70;95979.00;;;;8299315;28;20208;-66
2023/08/05 02:38:51;;;;;;;4.47;3.58;;;;;16.80;95974.00;;;;8299545;28;20271;-65
2023/08/05 02:42:54;;;;;;;6.25;3.58;;;;;16.80;95975.00;;;;8298751;28;20293;-66
2023/08/05 02:46:58;;;;;;;3.65;3.15;;;;;16.80;95978.00;;;;8299892;28;20236;-65
2023/08/05 02:51:05;;;;;;;4.88;3.20;;;;;16.80;95962.00;;;;8299083;28;20527;-65
2023/08/05 02:55:11;;;;;;;7.13;3.50;;;;;16.80;95955.00;;;;8299257;28;20628;-65
2023/08/05 02:59:16;;;;;;;3.78;3.47;;;;;16.80;95963.00;;;;8299123;28;20213;-65
2023/08/05 03:03:20;;;;;;;5.18;3.53;;;;;16.80;95974.00;;;;8312644;23;20298;-69
2023/08/05 03:07:25;;;;;;;3.63;3.30;;;;;16.80;95984.00;;;;8307938;28;20204;-67
2023/08/05 03:11:31;;;;;;;3.25;2.92;;;;;16.90;95988.00;;;;8310035;28;20206;-73
2023/08/05 03:15:37;;;;;;;3.78;3.35;;;;;16.90;96002.00;;;;8312000;28;20193;-71
2023/08/05 03:19:42;;;;;;;5.00;3.17;;;;;16.90;96015.00;;;;8307963;28;20225;-75
2023/08/05 03:23:46;;;;;;;4.80;3.60;;;;;16.90;96027.00;;;;8300085;28;20244;-70
2023/08/05 03:27:49;;;;;;;3.40;3.10;;;;;17.00;96034.00;;;;8304594;28;20211;-74
2023/08/05 03:31:57;;;;;;;5.72;3.00;;;;;17.00;96037.00;;;;8311531;28;20291;-83
2023/08/05 03:36:02;;;;;;;2.65;2.38;;;;;17.00;96026.00;;;;8313772;28;20973;-72
2023/08/05 03:40:07;;;;;;;3.13;2.83;;;;;17.00;96020.00;;;;8311921;28;20236;-76
2023/08/05 03:44:10;;;;;;;3.30;3.10;;;;;17.00;96011.00;;;;8320076;28;21097;-69
2023/08/05 03:48:16;;;;;;;3.40;3.10;;;;;17.00;96006.00;;;;8315417;28;20189;-68
2023/08/05 03:52:26;;;;;;;3.58;3.20;;;;;17.00;96008.00;;;;8317322;28;20316;-79
2023/08/05 03:56:31;;;;;;;2.92;2.70;;;;;17.00;96016.00;;;;8319340;28;20198;-71
2023/08/05 04:00:36;;;;;;;3.60;3.20;;;;;17.00;96027.00;;;;8315809;28;20589;-75
2023/08/05 04:04:39;;;;;;;3.33;3.03;;;;;17.00;96035.00;;;;8285325;28;21156;-76
2023/08/05 04:08:48;;;;;;;3.25;3.00;;;;;17.00;96034.00;;;;8280454;28;20244;-72
2023/08/05 04:12:51;;;;;;;3.50;3.13;;;;;17.00;96043.00;;;;8280950;28;20249;-76
2023/08/05 04:16:55;;;;;;;3.40;3.10;;;;;17.00;96041.00;;;;8274688;28;20206;-73
2023/08/05 04:20:58;;;;;;;4.47;3.28;;;;;17.00;96031.00;;;;8276104;28;20225;-75
2023/08/05 04:25:02;;;;;;;3.70;3.33;;;;;16.90;96021.00;;;;8285363;28;20308;-71
2023/08/05 04:29:08;;;;;;;5.22;2.97;;;;;16.90;96015.00;;;;8283162;28;20234;-76
2023/08/05 04:33:11;;;;;;;3.53;3.22;;;;;16.80;96023.00;;;;8282507;28;20197;-74
2023/08/05 04:37:18;;;;;;;7.22;3.50;;;;;16.80;96032.00;;;;8283458;28;20201;-71
2023/08/05 04:41:23;;;;;;;4.75;3.50;;;;;16.80;96026.00;;;;8273768;28;20222;-69
2023/08/05 04:45:26;;;;;;;3.65;3.35;;;;;16.80;96029.00;;;;8279530;28;20328;-74
2023/08/05 04:49:29;;;;;;;4.88;3.15;;;;;16.90;96024.00;;;;8279369;28;20201;-70
2023/08/05 04:53:37;;;;;;;4.03;3.40;;;;;17.00;96023.00;;;;8273594;28;20202;-70
2023/08/05 04:57:44;;;;;;;4.80;3.22;;;;;17.00;96016.00;;;;8263078;28;20203;-73
2023/08/05 05:01:48;;;;;;;3.72;3.40;;;;;17.10;96022.00;;;;8286981;28;20874;-70
2023/08/05 05:05:53;;;;;;;3.83;3.28;;;;;17.10;96020.00;;;;8270924;28;20206;-71
2023/08/05 05:09:56;;;;;;;3.47;3.20;;;;;17.20;96022.00;;;;8285655;28;20727;-69
2023/08/05 05:14:01;;;;;;;3.22;3.00;;;;;17.20;96020.00;;;;8287421;28;20202;-68
2023/08/05 05:18:06;;;;;;;3.42;3.13;;;;;17.20;96016.00;;;;8275975;28;20210;-69
2023/08/05 05:22:10;;;;;;;5.97;3.22;;;;;17.30;96014.00;;;;8276797;28;20240;-74
2023/08/05 05:26:15;;;;;;;3.38;3.08;;;;;17.30;96002.00;;;;8279499;28;20790;-71
2023/08/05 05:30:25;;;;;;;2.75;2.58;;;;;17.40;95996.00;;;;8261994;28;20195;-70
2023/08/05 05:34:28;;;;;;;3.42;2.92;;;;;17.50;95981.00;;;;8279262;28;20205;-71
2023/08/05 05:38:31;;;;;;;4.40;3.10;;;;;17.50;95974.00;;;;8270566;28;20201;-69
2023/08/05 05:42:35;;;;;;;3.20;2.85;;;;;17.50;95982.00;;;;8280568;28;20222;-71
2023/08/05 05:46:39;;;;;;;3.20;2.95;;;;;17.60;95993.00;;;;8271237;28;20710;-75
2023/08/05 05:50:43;;;;;;;3.35;2.80;;;;;17.60;95986.00;;;;8284938;28;20248;-73
2023/08/05 05:54:46;;;;;;;4.10;3.13;;;;;17.70;95985.00;;;;8281906;28;20206;-76
2023/08/05 05:58:50;;;;;;;3.40;3.10;;;;;17.70;95989.00;;;;8273441;28;20220;-70
2023/08/05 06:02:55;;;;;;;4.57;2.97;;;;;17.80;96004.00;;;;8280412;28;20234;-69
2023/08/05 06:07:01;;;;;;;3.00;2.80;;;;;17.90;96011.00;;;;8262945;28;20707;-70
2023/08/05 06:11:04;;;;;;;4.45;2.80;;;;;18.00;96010.00;;;;8282437;28;20245;-69
2023/08/05 06:15:18;;;;;;;4.65;3.10;;;;;18.00;96024.00;;;;8270942;28;20206;-71
2023/08/05 06:19:24;;;;;;;4.05;2.70;;;;;18.10;96037.00;;;;8288756;28;20232;-75
2023/08/05 06:23:27;;;;;;;7.38;3.25;;;;;18.10;96038.00;;;;8276588;28;20229;-70
2023/08/05 06:27:30;;;;;;;4.63;3.35;;;;;18.10;96017.00;;;;8278055;28;20293;-73
2023/08/05 06:31:34;;;;;;;5.47;3.20;;;;;18.10;96026.00;;;;8276952;28;20221;-75
2023/08/05 06:35:38;;;;;;;3.13;2.83;;;;;18.20;96035.00;;;;8264131;28;20203;-71
2023/08/05 06:39:41;;;;;;;3.80;2.72;;;;;18.30;96041.00;;;;8267529;28;20666;-73
2023/08/05 06:43:44;;;;;;;3.40;3.10;;;;;18.40;96042.00;;;;8282569;28;20462;-68
2023/08/05 06:47:48;;;;;;;5.18;3.13;;;;;18.50;96043.00;;;;8282563;28;20202;-72
2023/08/05 06:51:53;;;;;;;3.88;3.22;;;;;18.50;96040.00;;;;8277570;28;20614;-71
2023/08/05 06:56:01;;;;;;;3.13;2.83;;;;;18.50;96044.00;;;;8276268;28;20321;-70
2023/08/05 07:00:11;;;;;;;5.85;2.83;;;;;18.60;96043.00;;;;8280243;28;20217;-73
2023/08/05 07:04:14;;;;;;;7.50;2.83;;;;;18.60;96032.00;;;;8279222;28;20771;-70
2023/08/05 07:08:22;;;;;;;3.17;2.88;;;;;18.70;96029.00;;;;8280934;28;20206;-67
2023/08/05 07:12:25;;;;;;;2.95;2.70;;;;;18.80;96036.00;;;;8280809;28;20209;-73
2023/08/05 07:16:29;;;;;;;3.63;2.70;;;;;18.90;96037.00;;;;8279644;28;20285;-70
2023/08/05 07:20:37;;;;;;;3.13;2.83;;;;;19.00;96032.00;;;;8267779;28;20202;-75
2023/08/05 07:24:41;;;;;;;3.28;2.95;;;;;19.20;96030.00;;;;8287731;28;20201;-75
2023/08/05 07:28:45;;;;;;;7.00;3.10;;;;;19.40;96035.00;;;;8286644;28;20963;-66
2023/08/05 07:32:48;;;;;;;3.97;2.90;;;;;19.40;96034.00;;;;8271255;28;20624;-73
2023/08/05 07:36:53;;;;;;;3.80;3.00;;;;;19.60;96035.00;;;;8285405;28;20205;-70
2023/08/05 07:40:58;;;;;;;3.28;3.00;;;;;19.80;96039.00;;;;8286574;28;20226;-78
2023/08/05 07:45:07;;;;;;;6.55;2.80;;;;;20.10;96051.00;;;;8263995;28;20202;-73
2023/08/05 07:49:14;;;;;;;3.70;3.08;;;;;20.20;96052.00;;;;8285452;28;20212;-74
2023/08/05 07:53:23;;;;;;;4.82;3.00;;;;;20.30;96055.00;;;;8282444;28;20198;-71
2023/08/05 07:57:28;;;;;;;3.97;2.90;;;;;20.30;96052.00;;;;8284157;28;20197;-74
2023/08/05 08:01:33;;;;;;;3.13;2.47;;;;;20.30;96053.00;;;;8288597;28;20240;-72
2023/08/05 08:05:37;;;;;;;5.72;2.78;;;;;20.30;96044.00;;;;8282012;28;20321;-69
2023/08/05 08:09:40;;;;;;;5.35;2.85;;;;;20.30;96064.00;;;;8268841;28;20206;-78
2023/08/05 08:13:45;;;;;;;3.88;3.20;;;;;20.30;96044.00;;;;8275040;28;20287;-71
2023/08/05 08:17:48;;;;;;;8.18;2.83;;;;;20.40;96044.00;;;;8281164;28;20210;-67
2023/08/05 08:21:53;;;;;;;3.53;2.60;;;;;20.40;96038.00;;;;8291109;28;20675;-66
2023/08/05 08:26:00;;;;;;;3.25;2.72;;;;;20.60;96040.00;;;;8306291;28;20626;-67
2023/08/05 08:30:10;;;;;;;2.85;2.58;;;;;20.90;96033.00;;;;8302813;28;20616;-66
2023/08/05 08:34:14;;;;;;;4.13;2.92;;;;;21.10;96034.00;;;;8302840;28;20199;-66
2023/08/05 08:38:17;;;;;;;7.32;3.30;;;;;21.30;96039.00;;;;8284315;28;20602;-66
2023/08/05 08:42:21;;;;;;;3.58;2.80;;;;;21.50;96046.00;;;;8302107;28;20261;-66
2023/08/05 08:46:27;;;;;;;4.25;2.50;;;;;21.80;96055.00;;;;8284252;28;20281;-67
2023/08/05 08:50:33;;;;;;;2.88;2.60;;;;;21.90;96059.00;;;;8301106;28;20233;-66
2023/08/05 08:54:38;;;;;;;3.72;2.83;;;;;21.90;96053.00;;;;8300880;28;20535;-66
2023/08/05 08:58:45;;;;;;;3.95;2.50;;;;;22.00;96048.00;;;;8303133;28;20664;-66
2023/08/05 09:02:50;;;;;;;4.53;2.58;;;;;22.00;96045.00;;;;8301233;28;20316;-66
2023/08/05 09:06:56;;;;;;;3.42;3.10;;;;;22.20;96053.00;;;;8300221;28;20221;-66
2023/08/05 09:11:00;;;;;;;4.13;2.85;;;;;22.20;96053.00;;;;8299925;28;20639;-66
2023/08/05 09:15:04;;;;;;;5.25;2.80;;;;;22.10;96055.00;;;;8301664;28;20190;-69
2023/08/05 09:19:10;;;;;;;5.57;3.28;;;;;22.00;96056.00;;;;8299873;28;20269;-69
2023/08/05 09:23:13;;;;;;;3.45;2.80;;;;;22.00;96052.00;;;;8302034;28;20738;-68
2023/08/05 09:27:16;;;;;;;5.82;2.80;;;;;21.90;96056.00;;;;8301523;28;20280;-69
2023/08/05 09:31:19;;;;;;;2.97;2.72;;;;;21.90;96058.00;;;;8301363;28;20535;-68
2023/08/05 09:35:26;;;;;;;3.20;2.83;;;;;22.00;96051.00;;;;8301221;28;20209;-64
2023/08/05 09:39:44;;;;;;;3.53;2.80;;;;;22.20;96048.00;;;;8299653;28;20289;-64
2023/08/05 09:43:49;;;;;;;3.50;2.58;;;;;22.40;96044.00;;;;8300915;28;20222;-64
2023/08/05 09:48:00;;;;;;;6.00;3.20;;;;;22.80;96050.00;;;;8281365;28;20575;-64
2023/08/05 09:52:06;;;;;;;4.78;2.95;;;;;23.00;96050.00;;;;8300927;28;20561;-64
2023/08/05 09:56:15;;;;;;;4.68;2.90;;;;;23.20;96045.00;;;;8300862;28;20247;-65
2023/08/05 10:00:19;;;;;;;5.65;3.28;;;;;23.30;96041.00;;;;8300087;28;20256;-66
2023/08/05 10:04:24;;;;;;;4.00;3.03;;;;;23.30;96025.00;;;;8300471;28;20228;-65
2023/08/05 10:08:28;;;;;;;3.90;3.03;;;;;23.40;96019.00;;;;8300184;28;20209;-65
2023/08/05 10:12:37;;;;;;;4.07;2.80;;;;;23.60;96020.00;;;;8298297;28;20289;-65
2023/08/05 10:16:41;;;;;;;3.65;3.28;;;;;23.80;96017.00;;;;8281624;28;20233;-64
2023/08/05 10:20:50;;;;;;;7.68;2.83;;;;;24.10;96023.00;;;;8298940;28;20268;-62
2023/08/05 10:24:56;;;;;;;3.22;2.95;;;;;24.30;96028.00;;;;8299017;28;20312;-64
2023/08/05 10:29:26;;;;;;;5.35;3.20;;;;;24.30;96021.00;;;;8296962;28;20202;-64
2023/08/05 10:33:33;;;;;;;4.47;3.00;;;;;24.30;96018.00;;;;8298361;28;20232;-64
2023/08/05 10:37:48;;;;;;;3.30;3.00;;;;;24.20;96024.00;;;;8297485;28;20198;-64
2023/08/05 10:41:53;;;;;;;4.60;2.83;;;;;24.20;96016.00;;;;8281842;28;20205;-64
2023/08/05 10:46:00;;;;;;;3.20;3.00;;;;;24.30;96017.00;;;;8296238;28;20710;-64
2023/08/05 10:50:16;;;;;;;4.50;3.25;;;;;24.10;96012.00;;;;8299244;28;20638;-64
2023/08/05 10:54:23;;;;;;;3.72;3.13;;;;;23.90;96009.00;;;;8297301;28;20261;-64
2023/08/05 10:58:30;;;;;;;3.92;3.45;;;;;23.80;95998.00;;;;8298998;28;20289;-64
2023/08/05 11:02:33;;;;;;;3.45;3.15;;;;;23.90;95990.00;;;;8299185;28;20574;-63
2023/08/05 11:06:39;;;;;;;4.13;3.50;;;;;24.00;95994.00;;;;8298913;28;20194;-64
2023/08/05 11:10:48;;;;;;;4.05;3.40;;;;;23.80;95982.00;;;;8297033;28;20202;-64
2023/08/05 11:14:52;;;;;;;3.72;3.42;;;;;23.60;95987.00;;;;8297991;28;20190;-65
2023/08/05 11:18:59;;;;;;;4.30;3.63;;;;;23.30;95978.00;;;;8296636;28;20635;-64
2023/08/05 11:23:02;;;;;;;7.05;3.58;;;;;22.80;95974.00;;;;8298642;28;20257;-64
2023/08/05 11:27:07;;;;;;;5.38;3.55;;;;;22.60;95976.00;;;;8293725;28;20630;-63
2023/08/05 11:31:23;;;;;;;10.40;4.22;;;;;22.40;95965.00;;;;8294923;28;20313;-63
2023/08/05 11:35:29;;;;;;;4.82;3.83;;;;;22.40;95964.00;;;;8296067;28;20547;-63
2023/08/05 11:39:35;;;;;;;4.50;4.10;;;;;22.20;95962.00;;;;8297160;28;20201;-63
2023/08/05 11:43:41;;;;;;;7.30;4.50;;;;;21.80;95952.00;;;;8296584;28;20308;-63
2023/08/05 11:47:46;;;;;;;5.03;4.53;;;;;21.20;95947.00;;;;8294793;28;20711;-64
2023/08/05 11:51:53;;;;;;;8.45;5.05;;;;;20.60;95937.00;;;;8296260;28;20203;-63
2023/08/05 11:55:57;;;;;;;9.93;5.15;;;;;20.40;95935.00;;;;8292446;28;20194;-63
2023/08/05 12:00:06;;;;;;;9.27;4.80;;;;;20.40;95925.00;;;;8292787;28;20612;-64
2023/08/05 12:04:10;;;;;;;5.25;4.72;;;;;20.60;95930.00;;;;8297349;28;20229;-64
2023/08/05 12:08:36;;;;;;;4.43;3.97;;;;;20.70;95916.00;;;;8301859;28;20289;-67
2023/08/05 12:12:44;;;;;;;4.65;4.20;;;;;21.20;95916.00;;;;8304030;28;20248;-66
2023/08/05 12:16:52;;;;;;;5.78;4.53;;;;;21.70;95911.00;;;;8302371;28;20205;-67
2023/08/05 12:20:58;;;;;;;5.05;3.85;;;;;22.10;95904.00;;;;8302858;28;20202;-66
2023/08/05 12:25:04;;;;;;;5.85;4.30;;;;;22.60;95901.00;;;;8300097;28;20222;-66
2023/08/05 12:29:07;;;;;;;7.07;4.13;;;;;23.20;95897.00;;;;8303584;28;20505;-66
2023/08/05 12:33:12;;;;;;;5.43;3.72;;;;;23.60;95898.00;;;;8303194;28;20194;-66
2023/08/05 12:37:19;;;;;;;6.65;4.20;;;;;24.00;95892.00;;;;8303666;28;20194;-66
2023/08/05 12:41:23;;;;;;;4.05;3.60;;;;;24.80;95885.00;;;;8302771;28;20193;-66
2023/08/05 12:45:29;;;;;;;6.20;3.72;;;;;25.30;95878.00;;;;8283886;28;20571;-66
2023/08/05 12:49:39;;;;;;;4.13;3.83;;;;;25.60;95897.00;;;;8293906;28;20563;-66
2023/08/05 12:53:44;;;;;;;5.63;3.83;;;;;26.10;95884.00;;;;8301319;28;20605;-61
2023/08/05 12:57:47;;;;;;;4.28;3.80;;;;;26.40;95901.00;;;;8301918;28;20205;-61
2023/08/05 13:01:52;;;;;;;6.05;3.90;;;;;26.50;95887.00;;;;8299796;28;20226;-63
2023/08/05 13:05:55;;;;;;;4.60;4.07;;;;;26.20;95899.00;;;;8301762;28;20329;-64
2023/08/05 13:10:00;;;;;;;5.70;3.67;;;;;25.50;95886.00;;;;8301209;28;20281;-63
2023/08/05 13:14:03;;;;;;;4.28;3.85;;;;;24.90;95889.00;;;;8301256;28;20200;-63
2023/08/05 13:18:06;;;;;;;5.00;3.75;;;;;24.60;95896.00;;;;8300430;28;20585;-63
2023/08/05 13:22:09;;;;;;;3.13;2.55;;;;;24.60;95894.00;;;;8302045;28;20198;-63
2023/08/05 13:26:14;;;;;;;3.15;2.17;;;;;24.40;95892.00;;;;8300819;28;20253;-63
2023/08/05 13:30:19;;;;;;;5.38;2.50;;;;;24.20;95898.00;;;;8300886;28;20234;-63
2023/08/05 13:34:24;;;;;;;1.92;1.90;;;;;24.00;95901.00;;;;8300073;28;20202;-63
2023/08/05 13:38:30;;;;;;;2.10;2.00;;;;;23.80;95900.00;;;;8300952;28;20619;-64
2023/08/05 13:42:42;;;;;;;3.10;2.75;;;;;23.40;95901.00;;;;8299748;28;20234;-63
2023/08/05 13:46:45;;;;;;;3.22;2.60;;;;;23.10;95897.00;;;;8301020;28;20710;-63
2023/08/05 13:50:49;;;;;;;3.17;2.97;;;;;23.10;95895.00;;;;8301232;28;20208;-63
2023/08/05 13:54:56;;;;;;;3.20;2.83;;;;;23.10;95896.00;;;;8299678;28;20317;-63
2023/08/05 13:59:04;;;;;;;3.92;2.58;;;;;23.00;95888.00;;;;8283665;28;20599;-63
2023/08/05 14:03:07;;;;;;;3.35;3.10;;;;;22.80;95888.00;;;;8300248;28;20329;-63
2023/08/05 14:07:10;;;;;;;3.95;2.85;;;;;22.50;95879.00;;;;8300074;28;20194;-63
2023/08/05 14:11:15;;;;;;;4.05;2.70;;;;;22.10;95878.00;;;;8299895;28;20193;-62
2023/08/05 14:15:20;;;;;;;2.60;2.40;;;;;21.70;95879.00;;;;8299762;28;20233;-63
2023/08/05 14:19:23;;;;;;;3.42;2.53;;;;;21.50;95872.00;;;;8299222;28;20718;-62
2023/08/05 14:23:27;;;;;;;2.95;2.42;;;;;21.30;95871.00;;;;8299079;28;20313;-62
2023/08/05 14:27:30;;;;;;;2.85;2.65;;;;;21.20;95864.00;;;;8298898;28;20194;-62
2023/08/05 14:31:35;;;;;;;2.83;2.60;;;;;21.10;95862.00;;;;8299624;28;20715;-62
2023/08/05 14:35:38;;;;;;;2.78;2.58;;;;;21.10;95862.00;;;;8299490;28;20220;-63
2023/08/05 14:39:42;;;;;;;4.38;2.65;;;;;21.10;95867.00;;;;8299777;28;20200;-62
2023/08/05 14:43:47;;;;;;;3.13;2.80;;;;;21.00;95857.00;;;;8299873;28;20248;-63
2023/08/05 14:47:52;;;;;;;6.82;3.50;;;;;21.00;95857.00;;;;8299148;28;20285;-62
2023/08/05 14:51:56;;;;;;;3.97;3.35;;;;;21.00;95854.00;;;;8298402;28;20252;-62
2023/08/05 14:56:02;;;;;;;3.58;3.28;;;;;21.00;95843.00;;;;8300016;28;20276;-63
2023/08/05 15:00:09;;;;;;;3.97;3.47;;;;;21.00;95846.00;;;;8298156;28;20248;-63
2023/08/05 15:04:14;;;;;;;5.45;3.53;;;;;21.00;95861.00;;;;8298110;28;20641;-63
2023/08/05 15:08:22;;;;;;;3.53;3.22;;;;;21.10;95871.00;;;;8297331;28;20222;-63
2023/08/05 15:12:31;;;;;;;3.67;3.10;;;;;21.10;95879.00;;;;8298664;28;20202;-63
2023/08/05 15:16:36;;;;;;;3.25;2.95;;;;;21.20;95872.00;;;;8281534;28;20229;-63
2023/08/05 15:20:43;;;;;;;5.72;4.20;;;;;21.30;95860.00;;;;8295885;28;20248;-63
2023/08/05 15:24:46;;;;;;;6.63;5.20;;;;;21.40;95865.00;;;;8295630;28;20228;-63
2023/08/05 15:28:50;;;;;;;7.85;4.95;;;;;21.60;95869.00;;;;8298755;28;20198;-63
2023/08/05 15:32:56;;;;;;;5.45;4.95;;;;;21.70;95862.00;;;;8298135;28;20285;-63
2023/08/05 15:37:06;;;;;;;6.65;5.57;;;;;21.90;95859.00;;;;8301226;28;20197;-63
2023/08/05 15:41:16;;;;;;;7.13;6.03;;;;;21.90;95856.00;;;;8302680;28;20182;-63
2023/08/05 15:45:22;;;;;;;6.70;6.00;;;;;22.00;95854.00;;;;8303821;28;20248;-67
2023/08/05 15:49:29;;;;;;;10.00;5.80;;;;;22.10;95851.00;;;;8300947;28;20198;-67
2023/08/05 15:53:39;;;;;;;5.97;5.40;;;;;22.20;95846.00;;;;8301871;28;20232;-66
2023/08/05 15:57:43;;;;;;;6.38;5.57;;;;;22.40;95849.00;;;;8300612;28;20215;-66
2023/08/05 16:01:46;;;;;;;8.23;6.13;;;;;22.40;95834.00;;;;8297911;28;20738;-66
2023/08/05 16:05:49;;;;;;;8.07;5.60;;;;;22.30;95835.00;;;;8304481;28;20265;-66
2023/08/05 16:09:56;;;;;;;7.05;5.60;;;;;22.10;95830.00;;;;8304465;28;20229;-66
2023/08/05 16:14:07;;;;;;;8.52;6.35;;;;;22.00;95819.00;;;;8303613;28;20237;-66
2023/08/05 16:18:10;;;;;;;6.43;5.50;;;;;21.80;95819.00;;;;8304644;28;20198;-66
2023/08/05 16:22:15;;;;;;;6.40;5.18;;;;;21.70;95823.00;;;;8302990;28;20194;-66
2023/08/05 16:26:22;;;;;;;9.15;5.80;;;;;21.60;95822.00;;;;8303515;28;20230;-66
2023/08/05 16:30:27;;;;;;;9.82;5.68;;;;;21.50;95817.00;;;;8302972;28;20221;-66
2023/08/05 16:34:34;;;;;;;8.00;5.95;;;;;21.50;95827.00;;;;8295643;28;20292;-66
2023/08/05 16:38:39;;;;;;;7.03;6.20;;;;;21.50;95825.00;;;;8303492;28;20252;-66
2023/08/05 16:42:43;;;;;;;7.38;5.68;;;;;21.50;95834.00;;;;8301660;28;20201;-67
2023/08/05 16:46:49;;;;;;;7.13;5.50;;;;;21.40;95828.00;;;;8302170;28;20614;-67
2023/08/05 16:50:58;;;;;;;6.80;5.85;;;;;21.30;95815.00;;;;8301917;28;20198;-67
2023/08/05 16:55:04;;;;;;;9.20;6.15;;;;;21.20;95816.00;;;;8303186;28;20230;-67
2023/08/05 16:59:09;;;;;;;7.07;6.38;;;;;21.10;95812.00;;;;8301007;28;20198;-67
2023/08/05 17:03:12;;;;;;;8.48;6.22;;;;;21.00;95807.00;;;;8282471;28;20268;-66
2023/08/05 17:07:15;;;;;;;7.88;5.93;;;;;21.00;95798.00;;;;8285450;28;20236;-65
2023/08/05 17:11:27;;;;;;;7.20;5.95;;;;;20.90;95806.00;;;;8302203;28;20237;-65
2023/08/05 17:15:35;;;;;;;8.57;5.78;;;;;20.80;95787.00;;;;8300648;28;20603;-65
2023/08/05 17:19:40;;;;;;;8.77;6.00;;;;;20.70;95786.00;;;;8301180;28;20198;-66
2023/08/05 17:23:45;;;;;;;6.00;5.40;;;;;20.60;95786.00;;;;8300594;28;20722;-65
2023/08/05 17:27:48;;;;;;;5.90;5.30;;;;;20.50;95786.00;;;;8301694;28;20559;-65
2023/08/05 17:31:53;;;;;;;10.30;5.95;;;;;20.40;95784.00;;;;8301723;28;20206;-65
2023/08/05 17:36:01;;;;;;;7.30;6.35;;;;;20.30;95782.00;;;;8301809;28;20623;-64
2023/08/05 17:40:08;;;;;;;7.45;5.88;;;;;20.20;95791.00;;;;8300836;28;20200;-65
2023/08/05 17:44:19;;;;;;;6.72;6.00;;;;;20.20;95797.00;;;;8301060;28;20600;-65
2023/08/05 17:48:24;;;;;;;8.15;6.22;;;;;20.10;95795.00;;;;8301876;28;20240;-66
2023/08/05 17:52:27;;;;;;;7.35;6.25;;;;;20.10;95789.00;;;;8283562;28;20285;-67
2023/08/05 17:56:35;;;;;;;8.10;6.38;;;;;20.00;95794.00;;;;8299409;28;20196;-66
2023/08/05 18:00:42;;;;;;;8.57;6.70;;;;;20.00;95788.00;;;;8298699;28;20277;-66
2023/08/05 18:04:47;;;;;;;9.68;6.78;;;;;19.90;95779.00;;;;8300878;28;20663;-65
2023/08/05 18:08:50;;;;;;;11.45;6.45;;;;;19.80;95778.00;;;;8301335;28;20308;-65
2023/08/05 18:12:55;;;;;;;7.95;7.00;;;;;19.70;95784.00;;;;8298700;28;20233;-65
2023/08/05 18:17:00;;;;;;;8.93;7.00;;;;;19.60;95778.00;;;;8298229;28;20197;-66
2023/08/05 18:21:04;;;;;;;10.38;7.25;;;;;19.50;95774.00;;;;8299365;28;20284;-66
2023/08/05 18:25:09;;;;;;;17.73;12.48;;;;;19.40;95774.00;;;;8300104;28;20741;-66
2023/08/05 18:29:16;;;;;;;9.25;7.45;;;;;19.30;95769.00;;;;8300053;28;20285;-65
2023/08/05 18:33:22;;;;;;;9.85;6.95;;;;;19.30;95765.00;;;;8299490;28;20179;-66
2023/08/05 18:37:27;;;;;;;14.77;10.30;;;;;19.20;95755.00;;;;8300315;28;20190;-66
2023/08/05 18:41:30;;;;;;;13.35;9.07;;;;;19.20;95760.00;;;;8291120;28;20205;-66
2023/08/05 18:45:35;;;;;;;14.75;9.60;;;;;19.10;95754.00;;;;8299659;28;20226;-66
2023/08/05 18:49:39;;;;;;;16.13;9.10;;;;;19.10;95753.00;;;;8300599;28;20205;-66
2023/08/05 18:53:44;;;;;;;13.75;9.23;;;;;19.10;95739.00;;;;8298918;28;20197;-66
2023/08/05 18:57:50;;;;;;;11.10;9.05;;;;;19.10;95732.00;;;;8299893;28;20202;-66
2023/08/05 19:01:55;;;;;;;9.75;7.95;;;;;19.10;95744.00;;;;8298814;28;20226;-66
2023/08/05 19:06:02;;;;;;;9.00;7.53;;;;;19.10;95740.00;;;;8298838;28;20547;-66
2023/08/05 19:10:10;;;;;;;12.25;7.82;;;;;19.00;95744.00;;;;8299762;28;20293;-66
2023/08/05 19:14:14;;;;;;;10.77;7.57;;;;;19.00;95749.00;;;;8299464;28;20244;-66
2023/08/05 19:18:17;;;;;;;8.73;7.55;;;;;19.00;95754.00;;;;8299913;28;20612;-66
2023/08/05 19:22:23;;;;;;;8.88;7.25;;;;;18.90;95764.00;;;;8298271;28;20225;-66
2023/08/05 19:26:29;;;;;;;8.88;7.28;;;;;18.90;95763.00;;;;8299380;28;20217;-66
2023/08/05 19:30:37;;;;;;;10.23;8.00;;;;;18.80;95769.00;;;;8298103;28;20640;-66
2023/08/05 19:34:43;;;;;;;14.88;8.07;;;;;18.80;95768.00;;;;8299373;28;20639;-66
2023/08/05 19:38:46;;;;;;;12.02;8.40;;;;;18.70;95771.00;;;;8298679;28;20612;-66
2023/08/05 19:42:53;;;;;;;9.85;8.18;;;;;18.70;95769.00;;;;8298781;28;20612;-66
2023/08/05 19:46:56;;;;;;;11.07;8.05;;;;;18.70;95765.00;;;;8298607;28;20272;-66
2023/08/05 19:51:00;;;;;;;11.35;8.50;;;;;18.60;95774.00;;;;8298814;28;20619;-66
2023/08/05 19:55:16;;;;;;;11.98;8.48;;;;;18.50;95769.00;;;;8299015;28;20186;-66
2023/08/05 19:59:20;;;;;;;11.07;8.35;;;;;18.50;95753.00;;;;8295915;28;20237;-66
2023/08/05 20:03:26;;;;;;;13.52;8.98;;;;;18.40;95756.00;;;;8298244;28;20620;-66
2023/08/05 20:07:29;;;;;;;10.05;9.05;;;;;18.40;95752.00;;;;8297906;28;20225;-66
2023/08/05 20:11:32;;;;;;;18.00;8.88;;;;;18.30;95741.00;;;;8297437;28;20277;-66
2023/08/05 20:15:44;;;;;;;10.75;8.93;;;;;18.20;95736.00;;;;8297481;28;20202;-66
2023/08/05 20:19:49;;;;;;;13.02;9.13;;;;;18.20;95739.00;;;;8299214;28;20632;-66
2023/08/05 20:23:55;;;;;;;13.18;9.00;;;;;18.10;95734.00;;;;8299300;28;20190;-67
2023/08/05 20:28:01;;;;;;;15.23;9.95;;;;;18.10;95727.00;;;;8300250;28;20225;-67